Time;durP1;ratioP1;P1;durP2;ratioP2;P2;SDS_P1;SDS_P2;PMS_P1;PMS_P2;Temp;Humidity;BMP_temperature;BMP_pressure;BME280_temperature;BME280_humidity;BME280_pressure;Samples;Min_cycle;Max_cycle;Signal;HPM_P1;HPM_P2
2022/12/14 00:01:28;;;;;;;6.22;5.80;;;-0.30;99.90;;;;;;5042380;28;20222;-77
2022/12/14 00:03:56;;;;;;;5.70;5.30;;;-0.30;99.90;;;;;;5037281;28;20207;-77
2022/12/14 00:06:26;;;;;;;6.18;5.68;;;-0.30;99.90;;;;;;5041087;28;20220;-75
2022/12/14 00:08:56;;;;;;;5.72;5.25;;;-0.30;99.90;;;;;;5040920;28;20186;-75
2022/12/14 00:11:23;;;;;;;6.63;6.13;;;-0.40;99.90;;;;;;5044543;28;20219;-75
2022/12/14 00:13:52;;;;;;;6.82;6.13;;;-0.40;99.90;;;;;;5058997;28;20209;-77
2022/12/14 00:16:19;;;;;;;7.03;6.35;;;-0.30;99.90;;;;;;5047254;28;20274;-75
2022/12/14 00:18:51;;;;;;;7.25;6.50;;;-0.30;99.90;;;;;;5045278;28;20226;-75
2022/12/14 00:21:18;;;;;;;7.47;6.78;;;-0.30;99.90;;;;;;5044145;28;20701;-76
2022/12/14 00:23:48;;;;;;;6.63;6.03;;;-0.30;99.90;;;;;;5040290;28;20196;-76
2022/12/14 00:26:17;;;;;;;6.75;6.15;;;-0.30;99.90;;;;;;5033956;28;20249;-76
2022/12/14 00:28:46;;;;;;;6.65;6.15;;;-0.40;99.90;;;;;;5041682;28;20195;-75
2022/12/14 00:31:13;;;;;;;6.05;5.55;;;-0.40;99.90;;;;;;5036930;28;20309;-78
2022/12/14 00:33:40;;;;;;;7.18;6.57;;;-0.40;99.90;;;;;;5041704;28;20207;-77
2022/12/14 00:36:09;;;;;;;6.88;6.38;;;-0.40;99.90;;;;;;5046987;28;20894;-77
2022/12/14 00:38:37;;;;;;;6.65;6.15;;;-0.40;99.90;;;;;;5041684;28;20828;-77
2022/12/14 00:41:05;;;;;;;6.75;6.15;;;-0.40;99.90;;;;;;5033236;28;20215;-77
2022/12/14 00:43:33;;;;;;;6.95;6.35;;;-0.40;99.90;;;;;;5044876;28;20195;-76
2022/12/14 00:46:00;;;;;;;6.60;6.00;;;-0.40;99.90;;;;;;5047240;28;20628;-77
2022/12/14 00:48:27;;;;;;;6.55;6.05;;;-0.40;99.90;;;;;;5049808;28;20234;-77
2022/12/14 00:50:56;;;;;;;6.82;6.22;;;-0.40;99.90;;;;;;5058875;28;20210;-77
2022/12/14 00:53:24;;;;;;;5.53;5.13;;;-0.40;99.90;;;;;;5040413;28;20191;-77
2022/12/14 00:55:51;;;;;;;6.05;5.65;;;-0.40;99.90;;;;;;5041715;28;20228;-76
2022/12/14 00:58:22;;;;;;;5.65;5.25;;;-0.40;99.90;;;;;;5048455;28;20234;-77
2022/12/14 01:00:59;;;;;;;6.25;5.85;;;-0.40;99.90;;;;;;5055015;28;20626;-77
2022/12/14 01:03:26;;;;;;;6.15;5.63;;;-0.40;99.90;;;;;;5042544;28;20508;-77
2022/12/14 01:05:53;;;;;;;6.15;5.68;;;-0.40;99.90;;;;;;5050383;28;20225;-77
2022/12/14 01:08:20;;;;;;;7.35;6.70;;;-0.50;99.90;;;;;;5063578;28;20206;-77
2022/12/14 01:10:47;;;;;;;7.20;6.60;;;-0.70;99.90;;;;;;5042765;28;20222;-77
2022/12/14 01:13:15;;;;;;;6.82;6.22;;;-0.70;99.90;;;;;;5046226;28;20198;-77
2022/12/14 01:15:44;;;;;;;6.90;6.30;;;-0.80;99.90;;;;;;5058205;28;20230;-77
2022/12/14 01:18:11;;;;;;;7.20;6.57;;;-0.80;99.90;;;;;;5051658;28;20227;-77
2022/12/14 01:20:40;;;;;;;6.55;5.95;;;-0.90;99.90;;;;;;5053625;28;20198;-77
2022/12/14 01:23:07;;;;;;;6.95;6.28;;;-0.80;99.90;;;;;;5038564;28;20544;-76
2022/12/14 01:25:34;;;;;;;8.45;6.65;;;-0.80;99.90;;;;;;5046077;28;21027;-77
2022/12/14 01:28:01;;;;;;;7.47;6.78;;;-0.80;99.90;;;;;;5046311;28;20206;-76
2022/12/14 01:30:28;;;;;;;5.97;5.47;;;-0.80;99.90;;;;;;5050350;28;20195;-77
2022/12/14 01:32:57;;;;;;;7.15;6.60;;;-0.80;99.90;;;;;;5049973;28;20198;-76
2022/12/14 01:35:24;;;;;;;6.90;6.30;;;-0.90;99.90;;;;;;5047731;28;20220;-78
2022/12/14 01:37:52;;;;;;;5.97;5.47;;;-0.90;99.90;;;;;;5036342;28;20230;-77
2022/12/14 01:40:19;;;;;;;6.13;5.63;;;-0.80;99.90;;;;;;5047123;28;20698;-77
2022/12/14 01:42:46;;;;;;;5.43;5.03;;;-0.80;99.90;;;;;;5052239;28;20226;-77
2022/12/14 01:45:20;;;;;;;5.95;5.45;;;-0.70;99.90;;;;;;5042349;28;20214;-77
2022/12/14 01:47:53;;;;;;;6.15;5.72;;;-0.70;99.90;;;;;;5041795;28;20638;-77
2022/12/14 01:50:28;;;;;;;6.05;5.65;;;-0.70;99.90;;;;;;5050995;28;20202;-77
2022/12/14 01:52:58;;;;;;;6.38;5.88;;;-0.60;99.90;;;;;;5041232;28;20197;-77
2022/12/14 01:55:29;;;;;;;6.25;5.75;;;-0.60;99.90;;;;;;5049280;28;20230;-77
2022/12/14 01:58:02;;;;;;;5.50;5.10;;;-0.60;99.90;;;;;;5035082;28;20855;-77
2022/12/14 02:00:29;;;;;;;6.53;6.03;;;-0.60;99.90;;;;;;5043162;28;20325;-75
2022/12/14 02:03:00;;;;;;;6.00;5.50;;;-0.60;99.90;;;;;;5061688;28;20194;-78
2022/12/14 02:05:30;;;;;;;5.25;4.85;;;-0.50;99.90;;;;;;5039670;28;20215;-77
2022/12/14 02:07:58;;;;;;;5.80;5.35;;;-0.50;99.90;;;;;;5019780;28;20201;-75
2022/12/14 02:10:27;;;;;;;5.40;5.07;;;-0.50;99.90;;;;;;5021952;28;20200;-75
2022/12/14 02:13:02;;;;;;;5.63;5.22;;;-0.50;99.90;;;;;;5022699;28;20195;-75
2022/12/14 02:15:30;;;;;;;5.63;5.22;;;-0.50;99.90;;;;;;5028539;28;20210;-75
2022/12/14 02:17:57;;;;;;;5.10;4.78;;;-0.50;99.90;;;;;;5026705;28;20238;-75
2022/12/14 02:20:35;;;;;;;6.13;5.63;;;-0.50;99.90;;;;;;5027784;28;20202;-75
2022/12/14 02:23:37;;;;;;;5.90;5.50;;;-0.50;99.90;;;;;;5021890;28;20195;-75
2022/12/14 02:26:37;;;;;;;6.53;5.93;;;-0.40;99.90;;;;;;4994929;28;20227;-75
2022/12/14 02:29:29;;;;;;;5.50;5.10;;;-0.40;99.90;;;;;;5025988;28;20212;-74
2022/12/14 02:32:08;;;;;;;6.10;5.65;;;-0.40;99.90;;;;;;5027697;28;20567;-75
2022/12/14 02:34:44;;;;;;;5.50;5.10;;;-0.40;99.90;;;;;;5022396;28;21240;-75
2022/12/14 02:37:18;;;;;;;5.25;4.85;;;-0.40;99.90;;;;;;5019126;28;20228;-75
2022/12/14 02:39:57;;;;;;;5.15;4.85;;;-0.40;99.90;;;;;;5028148;28;20223;-75
2022/12/14 02:42:34;;;;;;;5.57;5.18;;;-0.40;99.90;;;;;;5028599;28;20212;-75
2022/12/14 02:45:10;;;;;;;5.57;5.28;;;-0.40;99.90;;;;;;5018202;28;20816;-75
2022/12/14 02:47:45;;;;;;;4.88;4.55;;;-0.30;99.90;;;;;;5025740;28;20215;-76
2022/12/14 02:50:20;;;;;;;5.32;4.93;;;-0.40;99.90;;;;;;5022651;28;20202;-75
2022/12/14 02:52:54;;;;;;;5.65;5.25;;;-0.40;99.90;;;;;;5025104;28;20264;-76
2022/12/14 02:55:26;;;;;;;5.60;5.20;;;-0.30;99.90;;;;;;5023977;28;20219;-76
2022/12/14 02:57:58;;;;;;;4.88;4.57;;;-0.40;99.90;;;;;;5047767;28;20201;-76
2022/12/14 03:00:28;;;;;;;5.65;5.25;;;-0.30;99.90;;;;;;5025746;28;20199;-76
2022/12/14 03:02:55;;;;;;;5.72;5.30;;;-0.40;99.90;;;;;;5029017;28;20203;-75
2022/12/14 03:05:23;;;;;;;5.15;4.85;;;-0.40;99.90;;;;;;5021233;28;20212;-76
2022/12/14 03:07:52;;;;;;;5.18;4.88;;;-0.40;99.90;;;;;;5025262;28;20208;-76
2022/12/14 03:10:32;;;;;;;6.38;5.95;;;-0.40;99.90;;;;;;5021050;28;20204;-75
2022/12/14 03:13:05;;;;;;;5.88;5.43;;;-0.40;99.90;;;;;;5037208;28;20222;-75
2022/12/14 03:15:37;;;;;;;5.57;5.18;;;-0.40;99.90;;;;;;5045683;28;20254;-75
2022/12/14 03:18:09;;;;;;;5.60;5.18;;;-0.40;99.90;;;;;;5046215;28;20799;-75
2022/12/14 03:20:38;;;;;;;5.78;5.35;;;-0.40;99.90;;;;;;5036655;28;20682;-75
2022/12/14 03:23:08;;;;;;;5.68;5.28;;;-0.40;99.90;;;;;;5041095;28;20199;-75
2022/12/14 03:25:42;;;;;;;5.80;5.28;;;-0.40;99.90;;;;;;5039710;28;20218;-75
2022/12/14 03:28:14;;;;;;;5.43;5.05;;;-0.40;99.90;;;;;;5042004;28;20190;-75
2022/12/14 03:30:46;;;;;;;5.30;5.00;;;-0.40;99.90;;;;;;5050455;28;20220;-76
2022/12/14 03:33:17;;;;;;;6.13;5.70;;;-0.40;99.90;;;;;;5039367;28;20194;-75
2022/12/14 03:35:49;;;;;;;5.70;5.30;;;-0.40;99.90;;;;;;5039784;28;20245;-75
2022/12/14 03:38:23;;;;;;;5.40;5.00;;;-0.40;99.90;;;;;;5051263;28;20228;-76
2022/12/14 03:40:55;;;;;;;5.00;4.70;;;-0.40;99.90;;;;;;5041139;28;20239;-76
2022/12/14 03:43:28;;;;;;;5.13;4.80;;;-0.40;99.90;;;;;;5050098;28;20214;-75
2022/12/14 03:46:05;;;;;;;5.25;4.85;;;-0.30;99.90;;;;;;5040915;28;20236;-76
2022/12/14 03:48:39;;;;;;;5.10;4.80;;;-0.30;99.90;;;;;;5043663;28;20194;-76
2022/12/14 03:51:14;;;;;;;5.50;5.13;;;-0.40;99.90;;;;;;5058828;28;20231;-75
2022/12/14 03:53:48;;;;;;;5.78;5.38;;;-0.40;99.90;;;;;;5054199;28;20199;-76
2022/12/14 03:56:23;;;;;;;6.05;5.65;;;-0.40;99.90;;;;;;5037495;28;20223;-76
2022/12/14 03:59:01;;;;;;;6.07;5.68;;;-0.40;99.90;;;;;;5043995;28;20226;-75
2022/12/14 04:01:38;;;;;;;5.57;5.07;;;-0.40;99.90;;;;;;5041901;28;20215;-76
2022/12/14 04:04:10;;;;;;;6.38;5.80;;;-0.50;99.90;;;;;;5050344;28;20217;-76
2022/12/14 04:06:43;;;;;;;5.28;4.97;;;-0.50;99.90;;;;;;5046609;28;20273;-75
2022/12/14 04:09:22;;;;;;;5.07;4.68;;;-0.50;99.90;;;;;;5041258;28;20203;-75
2022/12/14 04:20:25;;;;;;;4.85;4.55;;;-0.20;99.90;;;;;;5049148;28;20323;-77
2022/12/14 04:22:58;;;;;;;5.88;5.13;;;-0.20;99.90;;;;;;5053823;28;20700;-77
2022/12/14 04:31:09;;;;;;;5.05;4.68;;;-0.30;99.90;;;;;;5042988;28;20218;-77
2022/12/14 04:33:47;;;;;;;5.00;4.60;;;-0.30;99.90;;;;;;5053567;28;20206;-78
2022/12/14 04:36:19;;;;;;;5.60;5.20;;;-0.30;99.90;;;;;;5046774;28;20222;-78
2022/12/14 04:38:50;;;;;;;5.43;5.03;;;-0.30;99.90;;;;;;5049932;28;20258;-75
2022/12/14 04:41:23;;;;;;;5.15;4.72;;;-0.30;99.90;;;;;;5049124;28;20214;-78
2022/12/14 04:43:53;;;;;;;5.35;4.95;;;-0.30;99.90;;;;;;5059039;28;20741;-77
2022/12/14 04:46:24;;;;;;;5.82;5.43;;;-0.30;99.90;;;;;;5061342;28;20320;-78
2022/12/14 04:48:59;;;;;;;6.10;5.60;;;-0.20;99.90;;;;;;5044937;28;20617;-77
2022/12/14 04:51:31;;;;;;;5.05;4.57;;;-0.20;99.90;;;;;;5055079;28;20225;-76
2022/12/14 04:54:02;;;;;;;6.03;5.40;;;-0.10;99.90;;;;;;5055231;28;20194;-78
2022/12/14 04:56:36;;;;;;;5.50;5.20;;;-0.10;99.90;;;;;;5045717;28;20220;-77
2022/12/14 04:59:03;;;;;;;6.72;6.13;;;-0.10;99.90;;;;;;5039585;28;20717;-74
2022/12/14 05:01:40;;;;;;;5.78;5.38;;;-0.10;99.90;;;;;;5042592;28;20742;-77
2022/12/14 05:04:25;;;;;;;6.28;5.72;;;-0.20;99.90;;;;;;5037457;28;20207;-74
2022/12/14 05:07:03;;;;;;;6.35;5.85;;;-0.30;99.90;;;;;;5043191;28;20258;-77
2022/12/14 05:09:37;;;;;;;5.93;5.43;;;-0.30;99.90;;;;;;5045391;28;20241;-76
2022/12/14 05:12:08;;;;;;;6.00;5.55;;;-0.30;99.90;;;;;;5054756;28;20719;-77
2022/12/14 05:14:41;;;;;;;5.68;5.18;;;-0.30;99.90;;;;;;5052214;28;20740;-75
2022/12/14 05:17:08;;;;;;;5.38;4.97;;;-0.40;99.90;;;;;;5048003;28;20222;-77
2022/12/14 05:19:38;;;;;;;5.35;4.95;;;-0.30;99.90;;;;;;5055022;28;20225;-76
2022/12/14 05:22:07;;;;;;;5.80;5.40;;;-0.30;99.90;;;;;;5041818;28;20222;-77
2022/12/14 05:24:34;;;;;;;5.72;5.32;;;-0.30;99.90;;;;;;5049950;28;20317;-77
2022/12/14 05:27:01;;;;;;;6.43;5.90;;;-0.30;99.90;;;;;;5050374;28;20744;-77
2022/12/14 05:29:29;;;;;;;6.70;6.20;;;-0.30;99.90;;;;;;5042556;28;20676;-77
2022/12/14 05:31:56;;;;;;;6.18;5.78;;;-0.30;99.90;;;;;;5042262;28;20250;-81
2022/12/14 05:34:23;;;;;;;6.63;6.13;;;-0.30;99.90;;;;;;5039567;28;20195;-77
2022/12/14 05:36:52;;;;;;;6.32;5.82;;;-0.30;99.90;;;;;;5050582;28;20322;-76
2022/12/14 05:39:19;;;;;;;5.95;5.55;;;-0.30;99.90;;;;;;5053753;28;20221;-77
2022/12/14 05:41:46;;;;;;;7.05;6.20;;;-0.30;99.90;;;;;;5065037;28;20313;-77
2022/12/14 05:44:13;;;;;;;7.30;6.70;;;-0.30;99.90;;;;;;5047096;28;20202;-75
2022/12/14 05:46:40;;;;;;;7.90;7.20;;;-0.30;99.90;;;;;;5046759;28;20234;-77
2022/12/14 05:49:07;;;;;;;8.40;7.45;;;-0.40;99.90;;;;;;5053944;28;20474;-76
2022/12/14 05:51:35;;;;;;;7.65;6.97;;;-0.50;99.90;;;;;;5049297;28;20226;-77
2022/12/14 05:54:04;;;;;;;6.70;6.10;;;-0.50;99.90;;;;;;5055310;28;20203;-76
2022/12/14 05:56:31;;;;;;;6.72;6.20;;;-0.50;99.90;;;;;;5043321;28;20298;-78
2022/12/14 05:58:58;;;;;;;6.30;5.80;;;-0.50;99.90;;;;;;5045225;28;20313;-77
2022/12/14 06:01:25;;;;;;;6.47;5.95;;;-0.50;99.90;;;;;;5053285;28;20215;-77
2022/12/14 06:03:53;;;;;;;6.75;6.15;;;-0.40;99.90;;;;;;5055036;28;20202;-77
2022/12/14 06:06:20;;;;;;;6.78;6.28;;;-0.40;99.90;;;;;;5043804;28;20305;-78
2022/12/14 06:08:48;;;;;;;6.75;6.15;;;-0.40;99.90;;;;;;5046331;28;20218;-79
2022/12/14 06:11:20;;;;;;;6.68;6.18;;;-0.40;99.90;;;;;;5043892;28;20228;-78
2022/12/14 06:13:48;;;;;;;6.28;5.78;;;-0.40;99.90;;;;;;5040705;28;20202;-78
2022/12/14 06:16:16;;;;;;;7.00;6.40;;;-0.40;99.90;;;;;;5046076;28;20698;-78
2022/12/14 06:18:45;;;;;;;6.95;6.43;;;-0.30;99.90;;;;;;5054467;28;20199;-78
2022/12/14 06:21:13;;;;;;;7.13;6.53;;;-0.40;99.90;;;;;;5051835;28;20718;-77
2022/12/14 06:23:40;;;;;;;7.00;6.35;;;-0.40;99.90;;;;;;5047036;28;20299;-78
2022/12/14 06:26:08;;;;;;;6.40;5.90;;;-0.40;99.90;;;;;;5049160;28;20288;-77
2022/12/14 06:28:37;;;;;;;7.07;6.47;;;-0.50;99.90;;;;;;5042601;28;20210;-77
2022/12/14 06:31:06;;;;;;;7.43;6.93;;;-0.50;99.90;;;;;;5044807;28;20223;-77
2022/12/14 06:33:34;;;;;;;7.93;7.22;;;-0.50;99.90;;;;;;5045430;28;20231;-77
2022/12/14 06:36:01;;;;;;;7.15;6.55;;;-0.50;99.90;;;;;;5062245;28;20767;-78
2022/12/14 06:38:29;;;;;;;7.18;6.50;;;-0.50;99.90;;;;;;5057488;28;20208;-77
2022/12/14 06:40:56;;;;;;;6.30;5.78;;;-0.50;99.90;;;;;;5040721;28;20247;-77
2022/12/14 06:43:25;;;;;;;7.28;6.40;;;-0.50;99.90;;;;;;5044642;28;20207;-78
2022/12/14 06:45:54;;;;;;;7.57;6.88;;;-0.50;99.90;;;;;;5046669;28;20280;-77
2022/12/14 06:48:21;;;;;;;7.38;6.78;;;-0.40;99.90;;;;;;5051346;28;20199;-77
2022/12/14 06:50:49;;;;;;;7.78;7.15;;;-0.50;99.90;;;;;;5045609;28;20226;-77
2022/12/14 06:53:16;;;;;;;6.40;5.90;;;-0.50;99.90;;;;;;5042731;28;20248;-78
2022/12/14 06:55:43;;;;;;;7.05;6.40;;;-0.50;99.90;;;;;;5044820;28;20231;-77
2022/12/14 06:58:12;;;;;;;7.63;6.93;;;-0.40;99.90;;;;;;5051581;28;20194;-77
2022/12/14 07:00:39;;;;;;;6.97;6.38;;;-0.40;99.90;;;;;;5049815;28;20233;-78
2022/12/14 07:03:09;;;;;;;7.28;6.57;;;-0.40;99.90;;;;;;5041775;28;20199;-77
2022/12/14 07:05:36;;;;;;;8.02;7.20;;;-0.40;99.90;;;;;;5043133;28;20219;-77
2022/12/14 07:08:04;;;;;;;6.75;6.13;;;-0.30;99.90;;;;;;5049487;28;20191;-78
2022/12/14 07:10:31;;;;;;;7.82;7.22;;;-0.20;99.90;;;;;;5045805;28;21614;-77
2022/12/14 07:12:58;;;;;;;6.93;6.43;;;-0.20;99.90;;;;;;5045450;28;20256;-78
2022/12/14 07:15:25;;;;;;;7.07;6.38;;;-0.10;99.90;;;;;;5053879;28;20230;-77
2022/12/14 07:17:52;;;;;;;7.40;6.80;;;0.00;99.90;;;;;;5047071;28;20198;-78
2022/12/14 07:20:20;;;;;;;8.55;7.75;;;-0.10;99.90;;;;;;5040298;28;20215;-77
2022/12/14 07:22:48;;;;;;;7.55;6.85;;;-0.20;99.90;;;;;;5047552;28;20222;-77
2022/12/14 07:25:15;;;;;;;7.53;6.93;;;-0.20;99.90;;;;;;5044265;28;20223;-77
2022/12/14 07:27:42;;;;;;;6.90;6.35;;;-0.30;99.90;;;;;;5039262;28;20219;-77
2022/12/14 07:30:11;;;;;;;6.53;6.00;;;-0.30;99.90;;;;;;5059271;28;20195;-78
2022/12/14 07:32:38;;;;;;;6.90;6.40;;;-0.30;99.90;;;;;;5043679;28;20292;-76
2022/12/14 07:35:06;;;;;;;6.65;6.15;;;-0.30;99.90;;;;;;5042391;28;20246;-77
2022/12/14 07:37:35;;;;;;;7.38;6.78;;;-0.20;99.90;;;;;;5047171;28;20215;-77
2022/12/14 07:40:03;;;;;;;6.07;5.68;;;-0.10;99.90;;;;;;5046721;28;20215;-77
2022/12/14 07:42:30;;;;;;;5.88;5.38;;;-0.10;99.90;;;;;;5045144;28;20711;-77
2022/12/14 07:44:59;;;;;;;6.13;5.72;;;0.00;99.90;;;;;;5047450;28;20841;-77
2022/12/14 07:47:29;;;;;;;5.88;5.40;;;0.10;99.90;;;;;;5046584;28;20222;-79
2022/12/14 07:49:56;;;;;;;5.80;5.40;;;0.20;99.90;;;;;;5043253;28;20195;-79
2022/12/14 07:52:23;;;;;;;6.05;5.65;;;0.20;99.90;;;;;;5046505;28;20634;-78
2022/12/14 07:54:52;;;;;;;6.07;5.57;;;0.30;99.90;;;;;;5055280;28;20213;-78
2022/12/14 07:57:19;;;;;;;5.65;5.25;;;0.30;99.90;;;;;;5041873;28;20210;-79
2022/12/14 07:59:46;;;;;;;6.03;5.53;;;0.40;99.90;;;;;;5051167;28;20225;-79
2022/12/14 08:02:13;;;;;;;5.68;5.28;;;0.40;99.90;;;;;;5053914;28;20245;-79
2022/12/14 08:04:41;;;;;;;5.75;5.35;;;0.50;99.90;;;;;;5052976;28;20215;-79
2022/12/14 08:07:08;;;;;;;5.63;5.22;;;0.50;99.90;;;;;;5044190;28;20233;-78
2022/12/14 08:09:35;;;;;;;5.47;5.07;;;0.60;99.90;;;;;;5048905;28;20199;-79
2022/12/14 08:12:04;;;;;;;6.20;5.80;;;0.60;99.90;;;;;;5042364;28;20227;-79
2022/12/14 08:14:31;;;;;;;6.32;5.60;;;0.60;99.90;;;;;;5037534;28;20223;-78
2022/12/14 08:16:58;;;;;;;6.45;5.95;;;0.60;99.90;;;;;;5046387;28;20230;-79
2022/12/14 08:19:26;;;;;;;6.78;6.18;;;0.60;99.90;;;;;;5043029;28;20226;-78
2022/12/14 08:21:53;;;;;;;6.65;6.05;;;0.60;99.90;;;;;;5047827;28;20210;-78
2022/12/14 08:24:20;;;;;;;6.65;6.15;;;0.60;99.90;;;;;;5057329;28;20201;-79
2022/12/14 08:26:47;;;;;;;6.97;6.35;;;0.60;99.90;;;;;;5040765;28;20721;-78
2022/12/14 08:29:16;;;;;;;6.40;5.82;;;0.70;99.90;;;;;;5034077;28;20214;-78
2022/12/14 08:31:43;;;;;;;7.20;6.60;;;0.70;99.90;;;;;;5040052;28;20216;-78
2022/12/14 08:34:10;;;;;;;6.57;5.88;;;0.70;99.90;;;;;;5039681;28;20205;-78
2022/12/14 08:36:37;;;;;;;7.35;6.65;;;0.70;99.90;;;;;;5038749;28;20220;-78
2022/12/14 08:39:06;;;;;;;6.95;6.43;;;0.60;99.90;;;;;;5040851;28;20194;-78
2022/12/14 08:41:34;;;;;;;7.18;6.57;;;0.50;99.90;;;;;;5038589;28;20647;-77
2022/12/14 08:44:02;;;;;;;7.70;6.90;;;0.50;99.90;;;;;;5036397;28;20191;-78
2022/12/14 08:46:34;;;;;;;6.65;6.05;;;0.60;99.90;;;;;;5035149;28;20211;-77
2022/12/14 08:49:02;;;;;;;6.50;6.00;;;0.70;99.90;;;;;;5039148;28;20547;-78
2022/12/14 08:51:30;;;;;;;7.07;6.57;;;0.80;99.90;;;;;;5033511;28;20310;-78
2022/12/14 08:53:57;;;;;;;7.35;6.75;;;0.80;99.90;;;;;;5039082;28;20194;-78
2022/12/14 08:56:27;;;;;;;6.53;5.97;;;0.80;99.90;;;;;;5038925;28;20219;-78
2022/12/14 08:58:55;;;;;;;6.78;6.20;;;0.80;99.90;;;;;;5035587;28;20199;-78
2022/12/14 09:01:24;;;;;;;6.60;6.10;;;0.90;99.90;;;;;;5036653;28;20223;-78
2022/12/14 09:03:52;;;;;;;6.57;6.07;;;0.90;99.90;;;;;;5041181;28;20195;-77
2022/12/14 09:06:23;;;;;;;7.68;6.97;;;1.00;99.90;;;;;;5040787;28;20306;-77
2022/12/14 09:08:50;;;;;;;8.20;7.50;;;1.00;99.90;;;;;;5041984;28;20254;-77
2022/12/14 09:11:19;;;;;;;8.27;7.57;;;1.00;99.90;;;;;;5041893;28;20301;-78
2022/12/14 09:13:47;;;;;;;8.20;7.50;;;1.00;99.90;;;;;;5041128;28;20755;-78
2022/12/14 09:16:16;;;;;;;8.57;7.60;;;1.00;99.90;;;;;;5048362;28;20230;-77
2022/12/14 09:18:44;;;;;;;9.20;8.38;;;1.00;99.90;;;;;;5062850;28;20192;-77
2022/12/14 09:21:13;;;;;;;9.13;8.32;;;1.00;99.90;;;;;;5046525;28;20222;-77
2022/12/14 09:23:41;;;;;;;9.68;8.77;;;1.10;99.90;;;;;;5044615;28;20195;-78
2022/12/14 09:26:12;;;;;;;9.55;7.65;;;1.10;99.90;;;;;;5040186;28;20230;-77
2022/12/14 09:28:40;;;;;;;8.57;7.75;;;1.10;99.90;;;;;;5046815;28;20199;-77
2022/12/14 09:31:11;;;;;;;10.88;8.30;;;1.10;99.90;;;;;;5044130;28;20710;-77
2022/12/14 09:33:39;;;;;;;9.70;8.73;;;1.20;99.90;;;;;;5051166;28;20191;-77
2022/12/14 09:36:08;;;;;;;9.93;8.45;;;1.20;99.90;;;;;;5050914;28;20226;-77
2022/12/14 09:38:38;;;;;;;9.55;8.60;;;1.20;99.90;;;;;;5042887;28;20208;-77
2022/12/14 09:41:07;;;;;;;9.55;8.65;;;1.30;99.90;;;;;;5034743;28;20224;-77
2022/12/14 09:43:42;;;;;;;9.27;8.38;;;1.30;99.90;;;;;;5049345;28;20644;-77
2022/12/14 09:46:25;;;;;;;9.85;8.02;;;1.30;99.90;;;;;;5046300;28;20309;-77
2022/12/14 09:48:53;;;;;;;9.40;8.40;;;1.30;99.90;;;;;;5043668;28;20195;-77
2022/12/14 09:51:22;;;;;;;9.43;8.30;;;1.30;99.90;;;;;;5040532;28;20222;-77
2022/12/14 09:54:05;;;;;;;8.60;7.63;;;1.20;99.90;;;;;;5041273;28;20601;-77
2022/12/14 09:56:33;;;;;;;9.25;8.15;;;1.30;99.90;;;;;;5037644;28;20214;-77
2022/12/14 09:59:02;;;;;;;8.38;7.50;;;1.30;99.90;;;;;;5045381;28;20697;-77
2022/12/14 10:01:54;;;;;;;9.13;8.23;;;1.30;99.90;;;;;;5036834;28;20713;-77
2022/12/14 10:04:37;;;;;;;8.98;8.07;;;1.30;99.90;;;;;;5039512;28;20207;-77
2022/12/14 10:07:13;;;;;;;8.95;8.07;;;1.30;99.90;;;;;;5043207;28;20276;-77
2022/12/14 10:09:48;;;;;;;8.35;7.65;;;1.30;99.90;;;;;;5039917;28;20757;-77
2022/12/14 10:12:28;;;;;;;9.35;8.45;;;1.30;99.90;;;;;;5055842;28;20210;-76
2022/12/14 10:15:08;;;;;;;8.68;7.78;;;1.30;99.90;;;;;;5046120;28;20271;-77
2022/12/14 10:17:56;;;;;;;9.68;8.00;;;1.40;99.90;;;;;;5041590;28;20226;-76
2022/12/14 10:20:29;;;;;;;10.88;8.88;;;1.50;99.90;;;;;;5040959;28;20226;-76
2022/12/14 10:22:57;;;;;;;9.85;8.88;;;1.60;99.90;;;;;;5047096;28;20198;-76
2022/12/14 10:25:27;;;;;;;9.38;8.57;;;1.60;99.90;;;;;;5045203;28;20219;-77
2022/12/14 10:27:59;;;;;;;8.80;8.00;;;1.60;99.90;;;;;;5040813;28;20195;-76
2022/12/14 10:30:27;;;;;;;11.25;9.35;;;1.70;99.90;;;;;;5030715;28;20209;-76
2022/12/14 10:33:02;;;;;;;10.05;8.85;;;1.70;99.90;;;;;;5034353;28;20666;-77
2022/12/14 10:35:35;;;;;;;8.82;7.95;;;1.80;99.90;;;;;;5038436;28;20218;-77
2022/12/14 10:38:06;;;;;;;9.10;8.20;;;1.90;99.90;;;;;;5043658;28;20229;-77
2022/12/14 10:40:35;;;;;;;9.38;8.48;;;1.90;99.90;;;;;;5035210;28;20218;-76
2022/12/14 10:43:17;;;;;;;8.00;7.25;;;2.00;99.90;;;;;;5047796;28;20198;-77
2022/12/14 10:45:51;;;;;;;9.23;8.32;;;2.00;99.90;;;;;;5036084;28;20701;-78
2022/12/14 10:48:44;;;;;;;8.75;7.85;;;2.00;99.90;;;;;;5039422;28;20190;-77
2022/12/14 10:51:16;;;;;;;8.43;7.72;;;2.00;99.90;;;;;;5043641;28;20258;-74
2022/12/14 10:53:47;;;;;;;8.93;8.02;;;2.00;99.90;;;;;;5045406;28;20741;-77
2022/12/14 10:56:19;;;;;;;9.82;8.85;;;2.10;99.90;;;;;;5049496;28;20222;-76
2022/12/14 10:59:20;;;;;;;9.38;8.38;;;2.10;99.90;;;;;;5052516;28;20491;-76
2022/12/14 11:01:49;;;;;;;10.38;8.90;;;2.10;99.90;;;;;;5039750;28;20825;-76
2022/12/14 11:04:29;;;;;;;11.65;8.27;;;2.10;99.90;;;;;;5042479;28;20198;-76
2022/12/14 11:06:56;;;;;;;10.43;9.32;;;2.20;99.90;;;;;;5054324;28;20219;-75
2022/12/14 11:09:24;;;;;;;10.57;9.57;;;2.20;99.90;;;;;;5037302;28;20194;-74
2022/12/14 11:11:59;;;;;;;10.07;9.07;;;2.30;99.90;;;;;;5033287;28;20218;-76
2022/12/14 11:14:27;;;;;;;11.65;9.13;;;2.30;99.90;;;;;;5041763;28;20237;-76
2022/12/14 11:16:54;;;;;;;9.38;8.57;;;2.30;99.90;;;;;;5029706;28;20250;-75
2022/12/14 11:19:23;;;;;;;9.15;8.25;;;2.40;99.90;;;;;;5032609;28;20195;-74
2022/12/14 11:21:51;;;;;;;9.23;8.30;;;2.40;99.90;;;;;;5041024;28;20222;-76
2022/12/14 11:24:23;;;;;;;10.02;9.00;;;2.40;99.90;;;;;;5043926;28;20745;-74
2022/12/14 11:26:53;;;;;;;9.45;8.55;;;2.40;99.90;;;;;;5043289;28;20228;-74
2022/12/14 11:29:29;;;;;;;9.23;8.32;;;2.30;99.90;;;;;;5045795;28;20190;-74
2022/12/14 11:31:56;;;;;;;9.05;8.13;;;2.30;99.90;;;;;;5037874;28;20222;-74
2022/12/14 11:34:30;;;;;;;9.68;8.70;;;2.20;99.90;;;;;;5032123;28;20195;-74
2022/12/14 11:37:11;;;;;;;10.13;8.50;;;2.20;99.90;;;;;;5035997;28;20231;-76
2022/12/14 11:39:41;;;;;;;9.48;8.60;;;2.20;99.90;;;;;;5046716;28;20203;-75
2022/12/14 11:42:19;;;;;;;10.18;9.18;;;2.20;99.90;;;;;;5029801;28;20305;-75
2022/12/14 11:44:49;;;;;;;11.45;8.00;;;2.20;99.90;;;;;;5036631;28;20214;-75
2022/12/14 11:47:18;;;;;;;9.50;8.57;;;2.20;99.90;;;;;;5028592;28;20613;-76
2022/12/14 11:49:49;;;;;;;8.68;7.78;;;2.10;99.90;;;;;;5045157;28;20661;-76
2022/12/14 11:52:18;;;;;;;11.48;8.00;;;2.10;99.90;;;;;;5049259;28;20222;-76
2022/12/14 11:54:48;;;;;;;8.15;7.43;;;2.10;99.90;;;;;;5043224;28;20222;-76
2022/12/14 11:57:23;;;;;;;8.00;7.30;;;2.10;99.90;;;;;;5041995;28;20593;-77
2022/12/14 11:59:54;;;;;;;8.10;7.30;;;2.20;99.90;;;;;;5039039;28;20494;-77
2022/12/14 12:02:27;;;;;;;8.80;7.68;;;2.20;99.90;;;;;;5047016;28;20231;-77
2022/12/14 12:04:58;;;;;;;9.38;8.05;;;2.30;99.90;;;;;;5035973;28;20220;-77
2022/12/14 12:07:31;;;;;;;9.13;8.27;;;2.30;99.90;;;;;;5038505;28;20219;-77
2022/12/14 12:10:06;;;;;;;9.73;8.70;;;2.40;99.90;;;;;;5036693;28;20222;-77
2022/12/14 12:12:34;;;;;;;9.55;8.57;;;2.30;99.90;;;;;;5034172;28;20219;-77
2022/12/14 12:15:03;;;;;;;11.93;8.85;;;2.30;99.90;;;;;;5043248;28;20653;-76
2022/12/14 12:17:42;;;;;;;9.20;8.40;;;2.20;99.90;;;;;;5041055;28;20217;-76
2022/12/14 12:20:25;;;;;;;8.50;7.80;;;2.20;99.90;;;;;;5045446;28;20200;-76
2022/12/14 12:22:57;;;;;;;9.75;8.75;;;2.20;99.90;;;;;;5042215;28;20270;-76
2022/12/14 12:25:25;;;;;;;9.73;8.55;;;2.30;99.90;;;;;;5027138;28;20318;-76
2022/12/14 12:28:03;;;;;;;9.60;8.63;;;2.30;99.90;;;;;;5039339;28;20344;-76
2022/12/14 12:30:36;;;;;;;8.68;7.78;;;2.30;99.90;;;;;;5039926;28;20252;-77
2022/12/14 12:33:15;;;;;;;7.75;7.05;;;2.20;99.90;;;;;;5047414;28;20195;-77
2022/12/14 12:35:49;;;;;;;7.90;7.10;;;2.10;99.90;;;;;;5042092;28;20602;-77
2022/12/14 12:38:24;;;;;;;7.68;6.97;;;2.20;99.90;;;;;;5048620;28;20199;-77
2022/12/14 12:41:02;;;;;;;7.40;6.70;;;2.20;99.90;;;;;;5036394;28;20218;-77
2022/12/14 12:43:36;;;;;;;8.57;7.68;;;2.20;99.90;;;;;;5041419;28;20248;-78
2022/12/14 12:46:13;;;;;;;7.25;6.63;;;2.30;99.90;;;;;;5045545;28;20722;-77
2022/12/14 12:48:46;;;;;;;7.90;7.07;;;2.30;99.90;;;;;;5043882;28;20404;-77
2022/12/14 12:51:19;;;;;;;7.75;7.10;;;2.40;99.90;;;;;;5039525;28;20222;-77
2022/12/14 12:53:49;;;;;;;7.90;7.10;;;2.50;99.90;;;;;;5040099;28;20209;-77
2022/12/14 12:56:20;;;;;;;6.88;6.38;;;2.50;99.90;;;;;;5048237;28;20230;-77
2022/12/14 12:58:51;;;;;;;7.88;7.07;;;2.60;99.90;;;;;;5044129;28;20250;-77
2022/12/14 13:01:26;;;;;;;8.85;7.95;;;2.60;99.90;;;;;;5029567;28;20214;-77
2022/12/14 13:03:57;;;;;;;10.45;8.75;;;2.60;99.90;;;;;;5036724;28;20691;-76
2022/12/14 13:06:30;;;;;;;9.18;8.38;;;2.50;99.90;;;;;;5034758;28;20238;-77
2022/12/14 13:08:59;;;;;;;9.60;8.70;;;2.40;99.90;;;;;;5036053;28;20199;-78
2022/12/14 13:11:31;;;;;;;9.60;8.65;;;2.40;99.90;;;;;;5028302;28;20214;-78
2022/12/14 13:14:03;;;;;;;10.27;8.65;;;2.40;99.90;;;;;;5038758;28;20203;-78
2022/12/14 13:16:34;;;;;;;12.27;10.43;;;2.40;99.90;;;;;;5036289;28;20577;-78
2022/12/14 13:19:09;;;;;;;10.55;9.45;;;2.40;99.90;;;;;;5039387;28;20202;-78
2022/12/14 13:21:43;;;;;;;10.57;9.48;;;2.40;99.90;;;;;;5037760;28;20296;-76
2022/12/14 13:24:17;;;;;;;10.43;9.38;;;2.40;99.90;;;;;;5042320;28;20234;-76